Flight Track Log - Related Links

Times and Time Zones

All times are in EST time to prevent confusion due to time zone crossing. See the AMX203 flight status page for this flight to view local times or setup timezone preferences in your user account.

Time Position Orientation Groundspeed Altitude Reporting Facility
EST Latitude Longitude Course Direction KTS MPH feet Rate Location/Type
08:36PM 24.9749 -102.9691 146° Southeast  Level Estimated
08:37PM 24.9007 -102.9143 146° Southeast  Level Estimated
08:38PM 24.8264 -102.8594 146° Southeast  Level Estimated
08:39PM 24.7521 -102.8047 146° Southeast  Level Estimated
08:40PM 24.6778 -102.7500 146° Southeast  Level Estimated
08:41PM 24.6034 -102.6954 146° Southeast  Level Estimated
08:42PM 24.5291 -102.6408 146° Southeast  Level Estimated
08:43PM 24.4547 -102.5863 146° Southeast  Level Estimated
08:44PM 24.3803 -102.5319 146° Southeast  Level Estimated
08:45PM 24.3059 -102.4776 146° Southeast  Level Estimated
08:46PM 24.2314 -102.4233 146° Southeast  Level Estimated
08:47PM 24.1570 -102.3690 146° Southeast  Level Estimated
08:48PM 24.0825 -102.3149 146° Southeast  Level Estimated
08:49PM 24.0080 -102.2608 146° Southeast  Level Estimated
08:50PM 23.9335 -102.2067 146° Southeast  Level Estimated
08:51PM 23.8590 -102.1527 146° Southeast  Level Estimated
08:52PM 23.7844 -102.0988 146° Southeast  Level Estimated
08:53PM 23.7099 -102.0450 147° Southeast  Level Estimated
08:54PM 23.6353 -101.9912 147° Southeast  Level Estimated
08:55PM 23.5607 -101.9374 147° Southeast  Level Estimated
08:56PM 23.4860 -101.8838 147° Southeast  Level Estimated
08:57PM 23.4114 -101.8301 147° Southeast  Level Estimated
08:58PM 23.3368 -101.7766 147° Southeast  Level Estimated
08:59PM 23.2621 -101.7231 147° Southeast  Level Estimated
09:00PM 23.1874 -101.6697 147° Southeast  Level Estimated
09:01PM 23.1127 -101.6163 147° Southeast  Level Estimated
09:02PM 23.0379 -101.5630 147° Southeast  Level Estimated
09:03PM 22.9632 -101.5098 147° Southeast  Level Estimated
09:04PM 22.8884 -101.4566 147° Southeast  Level Estimated
09:05PM 22.8136 -101.4034 147° Southeast  Level Estimated
09:06PM 22.7388 -101.3503 147° Southeast  Level Estimated
09:07PM 22.6640 -101.2973 147° Southeast  Level Estimated
09:08PM 22.5892 -101.2443 147° Southeast  Level Estimated
09:09PM 22.5143 -101.1914 147° Southeast  Level Estimated
09:10PM 22.4394 -101.1386 147° Southeast  Level Estimated
09:11PM 22.3645 -101.0858 147° Southeast  Level Estimated
09:12PM 22.2896 -101.0331 147° Southeast  Level Estimated
09:13PM 22.2147 -100.9804 147° Southeast  Level Estimated
09:14PM 22.1398 -100.9278 147° Southeast  Level Estimated
09:15PM 22.0648 -100.8752 147° Southeast  Level Estimated
09:16PM 21.9898 -100.8227 147° Southeast  Level Estimated
09:17PM 21.9149 -100.7702 147° Southeast  Level Estimated
09:18PM 21.8398 -100.7178 147° Southeast  Level Estimated
09:19PM 21.7648 -100.6655 147° Southeast  Level Estimated
09:20PM 21.6898 -100.6132 147° Southeast  Level Estimated
09:21PM 21.6147 -100.5610 147° Southeast  Level Estimated
09:22PM 21.5396 -100.5088 147° Southeast  Level Estimated
09:23PM 21.4646 -100.4567 147° Southeast  Level Estimated
09:24PM 21.3895 -100.4046 147° Southeast  Level Estimated
09:25PM 21.3143 -100.3526 147° Southeast  Level Estimated
09:26PM 21.2392 -100.3006 147° Southeast  Level Estimated
09:27PM 21.1640 -100.2487 147° Southeast  Level Estimated
09:28PM 21.0889 -100.1968 147° Southeast  Level Estimated
09:29PM 21.0137 -100.1450 147° Southeast  Level Estimated
09:30PM 20.9385 -100.0933 147° Southeast  Level Estimated
09:31PM 20.8633 -100.0416 147° Southeast  Level Estimated
09:32PM 20.7880 -99.9899 147° Southeast  Level Estimated
09:33PM 20.7128 -99.9383 147° Southeast  Level Estimated
09:34PM 20.6375 -99.8868 147° Southeast  Level Estimated
09:35PM 20.5622 -99.8353 147° Southeast  Level Estimated
09:36PM 20.4869 -99.7838 147° Southeast  Level Estimated
09:37PM 20.4116 -99.7324 147° Southeast  Level Estimated
09:38PM 20.3363 -99.6811 147° Southeast  Level Estimated
09:39PM 20.2610 -99.6298 147° Southeast  Level Estimated
09:40PM 20.1856 -99.5785 147° Southeast  Level Estimated
09:41PM 20.1103 -99.5273 147° Southeast  Level Estimated
09:42PM 20.0349 -99.4762 147° Southeast  Level Estimated
09:43PM 19.9595 -99.4251 148° Southeast  Level Estimated
09:44PM 19.8841 -99.3740 148° Southeast  Level Estimated
09:45PM 19.8086 -99.3230 148° Southeast  Level Estimated
09:46PM 19.7332 -99.2721 148° Southeast  Level Estimated
09:47PM 19.6577 -99.2212 148° Southeast  Level Estimated
09:48PM 19.5823 -99.1703 148° Southeast  Level Estimated
09:49PM 19.5068 -99.1195 148° Southeast  Level Estimated
09:50PM 19.4363 -99.0721 148° Southeast  Level Estimated
09:51PM 19.4363 -99.0721 43° Northeast  Level Estimated
09:52PM 19.4363 -99.0721 43° Northeast  Level Estimated
09:53PM 19.4363 -99.0721 43° Northeast  Level Estimated
09:54PM 19.4363 -99.0721 43° Northeast  Level Estimated
09:55PM 19.4363 -99.0721 43° Northeast  Level Estimated
09:56PM 19.4363 -99.0721 43° Northeast  Level Estimated
09:57PM 19.4363 -99.0721 43° Northeast  Level Estimated
09:58PM 19.4363 -99.0721 43° Northeast  Level Estimated
09:59PM 19.4363 -99.0721 43° Northeast  Level Estimated
10:00PM 19.4363 -99.0721 43° Northeast  Level Estimated
10:01PM 19.4363 -99.0721 43° Northeast  Level Estimated
10:02PM 19.4363 -99.0721 43° Northeast  Level Estimated
10:03PM 19.4363 -99.0721 43° Northeast  Level Estimated
10:04PM 19.4363 -99.0721 43° Northeast  Level Estimated
10:05PM 19.4363 -99.0721 43° Northeast  Level Estimated
10:06PM 19.4363 -99.0721 43° Northeast  Level Estimated

Login

Don't have an account? Register now (free) for customized features, flight alerts, and more!